createdAt,value
2018-11-27T00:00:17.672Z,20.13
2018-11-27T00:02:45.765Z,22.27
2018-11-27T00:05:13.829Z,21.70
2018-11-27T00:07:41.898Z,23.30
2018-11-27T00:10:10.169Z,21.63
2018-11-27T00:12:38.243Z,21.53
2018-11-27T00:15:09.383Z,28.73
2018-11-27T00:17:37.470Z,24.30
2018-11-27T00:20:09.628Z,26.70
2018-11-27T00:22:38.057Z,27.43
2018-11-27T00:25:11.477Z,23.50
2018-11-27T00:27:39.564Z,22.70
2018-11-27T00:30:11.019Z,24.20
2018-11-27T00:32:39.119Z,21.80
2018-11-27T00:35:08.998Z,24.63
2018-11-27T00:37:37.097Z,21.13
2018-11-27T00:40:08.028Z,21.23
2018-11-27T00:42:36.117Z,22.10
2018-11-27T00:45:06.187Z,23.40
2018-11-27T00:47:34.268Z,20.80
2018-11-27T00:50:02.374Z,24.63
2018-11-27T00:52:30.444Z,22.57
2018-11-27T00:54:58.758Z,20.10
2018-11-27T00:57:26.750Z,20.53
2018-11-27T00:59:54.833Z,21.27
2018-11-27T01:02:22.893Z,17.00
2018-11-27T01:04:50.976Z,18.57
2018-11-27T01:07:19.032Z,24.07
2018-11-27T01:09:47.093Z,24.03
2018-11-27T01:12:15.206Z,20.83
2018-11-27T01:14:43.362Z,23.43
2018-11-27T01:17:11.438Z,23.20
2018-11-27T01:19:39.917Z,18.10
2018-11-27T01:22:08.001Z,20.90
2018-11-27T01:24:36.084Z,21.23
2018-11-27T01:27:04.218Z,19.70
2018-11-27T01:29:32.310Z,21.73
2018-11-27T01:32:00.373Z,19.67
2018-11-27T01:34:28.442Z,25.90
2018-11-27T01:36:56.521Z,14.40
2018-11-27T01:39:24.611Z,20.20
2018-11-27T01:41:52.703Z,19.43
2018-11-27T01:44:20.812Z,17.37
2018-11-27T01:46:48.876Z,19.70
2018-11-27T01:49:16.990Z,22.20
2018-11-27T01:51:45.065Z,27.50
2018-11-27T01:54:13.140Z,19.43
2018-11-27T01:56:41.208Z,21.80
2018-11-27T01:59:09.290Z,17.97
2018-11-27T02:01:37.380Z,20.27
2018-11-27T02:04:05.957Z,25.60
2018-11-27T02:06:34.033Z,22.03
2018-11-27T02:09:02.127Z,25.37
2018-11-27T02:11:30.167Z,31.13
2018-11-27T02:13:58.244Z,26.97
2018-11-27T02:16:26.319Z,26.07
2018-11-27T02:18:54.406Z,26.80
2018-11-27T02:21:22.505Z,30.03
2018-11-27T02:23:50.560Z,25.20
2018-11-27T02:26:18.609Z,25.23
2018-11-27T02:28:46.730Z,26.23
2018-11-27T02:31:14.803Z,26.93
2018-11-27T02:33:42.864Z,22.43
2018-11-27T02:36:10.964Z,29.07
2018-11-27T02:38:39.044Z,26.80
2018-11-27T02:41:07.116Z,27.77
2018-11-27T02:43:35.174Z,27.57
2018-11-27T02:46:03.273Z,25.73
2018-11-27T02:48:31.332Z,30.13
2018-11-27T02:50:59.436Z,23.87
2018-11-27T02:53:27.506Z,27.80
2018-11-27T02:55:55.597Z,25.30
2018-11-27T02:58:23.664Z,27.50
2018-11-27T03:00:51.750Z,27.23
2018-11-27T03:03:19.868Z,23.30
2018-11-27T03:05:47.925Z,21.80
2018-11-27T03:08:15.981Z,20.63
2018-11-27T03:10:44.075Z,17.43
2018-11-27T03:13:12.151Z,15.87
2018-11-27T03:15:42.970Z,17.83
2018-11-27T03:18:11.040Z,18.53
2018-11-27T03:20:39.100Z,20.37
2018-11-27T03:23:07.172Z,15.90
2018-11-27T03:25:35.753Z,23.00
2018-11-27T03:28:03.820Z,17.90
2018-11-27T03:30:31.890Z,15.47
2018-11-27T03:32:59.973Z,14.03
2018-11-27T03:35:28.078Z,15.30
2018-11-27T03:37:56.128Z,13.80
2018-11-27T03:40:26.581Z,12.97
2018-11-27T03:42:54.677Z,13.13
2018-11-27T03:45:23.304Z,11.83
2018-11-27T03:47:51.505Z,15.47
2018-11-27T03:50:22.573Z,13.27
2018-11-27T03:52:50.631Z,15.00
2018-11-27T03:55:18.699Z,16.40
2018-11-27T03:57:46.768Z,15.10
2018-11-27T04:00:16.795Z,13.33
2018-11-27T04:02:47.079Z,16.20
2018-11-27T04:05:15.140Z,16.23
2018-11-27T04:07:43.202Z,14.23
2018-11-27T04:10:13.781Z,15.63
2018-11-27T04:12:41.824Z,15.73
2018-11-27T04:15:10.761Z,16.43
2018-11-27T04:17:38.837Z,16.07
2018-11-27T04:20:08.227Z,16.90
2018-11-27T04:22:36.485Z,16.80
2018-11-27T04:25:05.928Z,19.73
2018-11-27T04:27:34.005Z,15.23
2018-11-27T04:30:02.093Z,17.30
2018-11-27T04:32:30.165Z,17.00
2018-11-27T04:34:58.233Z,15.50
2018-11-27T04:37:26.429Z,17.60
2018-11-27T04:39:54.512Z,16.47
2018-11-27T04:42:22.581Z,20.53
2018-11-27T04:44:50.685Z,15.87
2018-11-27T04:47:18.740Z,18.23
2018-11-27T04:49:46.801Z,17.40
2018-11-27T04:52:14.881Z,18.17
2018-11-27T04:54:42.949Z,18.83
2018-11-27T04:57:11.035Z,19.83
2018-11-27T04:59:39.197Z,18.60
2018-11-27T05:02:07.330Z,15.03
2018-11-27T05:04:35.384Z,17.13
2018-11-27T05:07:03.489Z,15.80
2018-11-27T05:09:31.553Z,18.10
2018-11-27T05:11:59.630Z,14.77
2018-11-27T05:14:27.701Z,16.73
2018-11-27T05:16:55.782Z,18.07
2018-11-27T05:19:23.846Z,17.50
2018-11-27T05:21:51.913Z,22.30
2018-11-27T05:24:20.001Z,19.30
2018-11-27T05:26:48.120Z,17.77
2018-11-27T05:29:16.193Z,16.37
2018-11-27T05:31:44.292Z,15.57
2018-11-27T05:34:12.380Z,14.33
2018-11-27T05:36:40.466Z,14.70
2018-11-27T05:39:09.226Z,17.20
2018-11-27T05:41:37.350Z,17.77
2018-11-27T05:44:06.981Z,20.23
2018-11-27T05:46:35.084Z,16.60
2018-11-27T05:49:03.168Z,16.93
2018-11-27T05:51:31.229Z,18.37
2018-11-27T05:53:59.319Z,21.23
2018-11-27T05:56:27.384Z,16.23
2018-11-27T05:58:55.479Z,20.93
2018-11-27T06:01:23.686Z,16.87
2018-11-27T06:03:51.760Z,15.90
2018-11-27T06:06:19.836Z,21.83
2018-11-27T06:08:47.881Z,20.20
2018-11-27T06:11:15.955Z,17.70
2018-11-27T06:13:44.032Z,18.57
2018-11-27T06:16:12.128Z,19.90
2018-11-27T06:18:40.186Z,19.93
2018-11-27T06:21:08.268Z,18.37
2018-11-27T06:23:36.340Z,22.80
2018-11-27T06:26:04.504Z,19.90
2018-11-27T06:28:32.568Z,16.83
2018-11-27T06:31:03.895Z,21.50
2018-11-27T06:33:31.986Z,17.83
2018-11-27T06:36:00.062Z,21.10
2018-11-27T06:38:28.143Z,21.50
2018-11-27T06:40:56.201Z,21.30
2018-11-27T06:43:24.269Z,21.37
2018-11-27T06:45:52.368Z,21.63
2018-11-27T06:48:20.421Z,24.10
2018-11-27T06:50:48.476Z,21.67
2018-11-27T06:53:16.577Z,22.47
2018-11-27T06:55:44.645Z,23.80
2018-11-27T06:58:12.723Z,21.60
2018-11-27T07:00:40.937Z,23.90
2018-11-27T07:03:11.568Z,22.50
2018-11-27T07:05:39.806Z,20.47
2018-11-27T07:08:08.589Z,23.80
2018-11-27T07:10:37.286Z,18.97
2018-11-27T07:13:12.773Z,20.10
2018-11-27T07:15:40.853Z,21.03
2018-11-27T07:18:09.072Z,18.77
2018-11-27T07:20:37.505Z,23.30
2018-11-27T07:23:06.281Z,22.03
2018-11-27T07:25:34.392Z,22.10
2018-11-27T07:28:02.480Z,20.70
2018-11-27T07:30:30.541Z,27.80
2018-11-27T07:32:58.602Z,25.13
2018-11-27T07:35:26.733Z,22.43
2018-11-27T07:37:54.892Z,22.80
2018-11-27T07:40:24.795Z,23.50
2018-11-27T07:42:57.085Z,20.67
2018-11-27T07:45:25.304Z,22.90
2018-11-27T07:47:53.355Z,21.87
2018-11-27T07:50:21.621Z,22.97
2018-11-27T07:52:49.668Z,20.77
2018-11-27T07:55:18.672Z,21.77
2018-11-27T07:57:47.244Z,25.20
2018-11-27T08:00:17.408Z,20.70
2018-11-27T08:02:47.705Z,23.27
2018-11-27T08:05:17.921Z,22.17
2018-11-27T08:07:52.060Z,22.03
2018-11-27T08:10:22.199Z,26.20
2018-11-27T08:12:50.290Z,20.33
2018-11-27T08:15:26.345Z,23.53
2018-11-27T08:17:54.458Z,24.40
2018-11-27T08:20:25.822Z,23.77
2018-11-27T08:22:53.917Z,21.07
2018-11-27T08:25:22.009Z,24.83
2018-11-27T08:27:50.062Z,27.83
2018-11-27T08:30:19.077Z,26.83
2018-11-27T08:32:47.245Z,25.73
2018-11-27T08:35:22.599Z,24.80
2018-11-27T08:37:51.835Z,22.93
2018-11-27T08:40:23.596Z,23.57
2018-11-27T08:42:52.281Z,21.30
2018-11-27T08:45:21.566Z,24.00
2018-11-27T08:47:50.556Z,16.97
2018-11-27T08:50:20.909Z,19.60
2018-11-27T08:52:53.086Z,16.50
2018-11-27T08:55:23.774Z,15.57
2018-11-27T08:57:51.957Z,20.80
2018-11-27T09:00:20.996Z,20.03
2018-11-27T09:02:50.261Z,19.23
2018-11-27T09:05:18.597Z,20.13
2018-11-27T09:07:47.058Z,21.67
2018-11-27T09:10:18.220Z,20.93
2018-11-27T09:12:46.292Z,16.17
2018-11-27T09:15:15.613Z,20.33
2018-11-27T09:17:45.373Z,16.97
2018-11-27T09:20:13.907Z,22.33
2018-11-27T09:22:42.009Z,20.17
2018-11-27T09:25:11.562Z,17.93
2018-11-27T09:27:39.642Z,19.20
2018-11-27T09:30:11.807Z,21.70
2018-11-27T09:32:39.856Z,18.20
2018-11-27T09:35:08.115Z,17.53
2018-11-27T09:37:36.216Z,19.57
2018-11-27T09:40:05.596Z,17.00
2018-11-27T09:42:33.640Z,19.87
2018-11-27T09:45:01.717Z,18.07
2018-11-27T09:47:29.837Z,17.77
2018-11-27T09:49:57.935Z,16.73
2018-11-27T09:52:26.003Z,26.03
2018-11-27T09:54:54.079Z,17.77
2018-11-27T09:57:22.168Z,17.70
2018-11-27T09:59:50.233Z,19.27
2018-11-27T10:02:18.309Z,20.60
2018-11-27T10:04:46.448Z,17.97
2018-11-27T10:07:14.501Z,20.60
2018-11-27T10:09:42.594Z,21.57
2018-11-27T10:12:10.687Z,17.83
2018-11-27T10:14:38.761Z,19.67
2018-11-27T10:17:06.841Z,18.70
2018-11-27T10:19:34.924Z,21.80
2018-11-27T10:22:03.032Z,16.57
2018-11-27T10:24:31.104Z,17.07
2018-11-27T10:26:59.164Z,17.27
2018-11-27T10:29:27.212Z,14.20
2018-11-27T10:31:55.292Z,19.30
2018-11-27T10:34:23.392Z,18.30
2018-11-27T10:36:51.460Z,17.43
2018-11-27T10:39:19.524Z,17.93
2018-11-27T10:41:47.572Z,16.73
2018-11-27T10:44:15.685Z,19.80
2018-11-27T10:46:43.759Z,20.27
2018-11-27T10:49:11.814Z,17.70
2018-11-27T10:51:39.897Z,24.67
2018-11-27T10:54:07.959Z,20.90
2018-11-27T10:56:36.032Z,18.60
2018-11-27T10:59:04.085Z,16.37
2018-11-27T11:01:37.636Z,18.70
2018-11-27T11:04:05.688Z,23.87
2018-11-27T11:06:33.854Z,18.63
2018-11-27T11:09:02.316Z,18.10
2018-11-27T11:11:30.381Z,20.40
2018-11-27T11:13:58.445Z,27.57
2018-11-27T11:16:26.502Z,20.57
2018-11-27T11:18:54.565Z,28.90
2018-11-27T11:21:22.661Z,34.03
2018-11-27T11:23:50.740Z,18.33
2018-11-27T11:26:18.805Z,19.50
2018-11-27T11:28:46.895Z,18.13
2018-11-27T11:31:14.944Z,18.63
2018-11-27T11:33:43.021Z,18.40
2018-11-27T11:36:11.128Z,18.20
2018-11-27T11:38:39.188Z,20.90
2018-11-27T11:41:07.309Z,21.87
2018-11-27T11:43:35.544Z,23.77
2018-11-27T11:46:03.628Z,18.83
2018-11-27T11:48:31.671Z,19.53
2018-11-27T11:50:59.767Z,22.17
2018-11-27T11:53:27.840Z,19.53
2018-11-27T11:55:55.915Z,22.23
2018-11-27T11:58:24.012Z,18.73
2018-11-27T12:00:53.264Z,24.77
2018-11-27T12:03:21.442Z,25.67
2018-11-27T12:05:49.490Z,17.97
2018-11-27T12:08:17.555Z,19.97
2018-11-27T12:10:45.640Z,25.30
2018-11-27T12:13:13.693Z,24.50
2018-11-27T12:15:41.784Z,21.27
2018-11-27T12:18:10.307Z,24.90
2018-11-27T12:20:39.208Z,22.33
2018-11-27T12:23:09.662Z,23.10
2018-11-27T12:25:37.297Z,25.70
2018-11-27T12:28:06.292Z,27.07
2018-11-27T12:30:34.363Z,23.83
2018-11-27T12:33:02.437Z,21.80
2018-11-27T12:35:30.510Z,23.57
2018-11-27T12:37:58.596Z,37.30
2018-11-27T12:40:27.875Z,31.47
2018-11-27T12:42:56.520Z,45.77
2018-11-27T12:45:26.558Z,29.77
2018-11-27T12:47:55.403Z,31.63
2018-11-27T12:50:26.543Z,21.57
2018-11-27T12:52:54.655Z,28.90
2018-11-27T12:55:23.594Z,19.90
2018-11-27T12:57:51.648Z,27.10
2018-11-27T13:00:21.128Z,28.97
2018-11-27T13:02:49.253Z,27.80
2018-11-27T13:05:25.466Z,22.57
2018-11-27T13:07:56.264Z,21.83
2018-11-27T13:10:24.326Z,22.20
2018-11-27T13:12:52.428Z,22.70
2018-11-27T13:15:21.093Z,25.90
2018-11-27T13:17:50.355Z,26.30
2018-11-27T13:20:19.252Z,31.77
2018-11-27T13:22:47.820Z,80.83
2018-11-27T13:25:17.780Z,29.80
2018-11-27T13:27:45.963Z,41.00
2018-11-27T13:30:38.744Z,24.93
2018-11-27T13:33:12.271Z,26.20
2018-11-27T13:35:40.367Z,27.43
2018-11-27T13:38:08.434Z,25.73
2018-11-27T13:40:36.851Z,23.83
2018-11-27T13:43:06.460Z,25.03
2018-11-27T13:45:34.530Z,23.67
2018-11-27T13:48:02.612Z,21.70
2018-11-27T13:50:30.663Z,25.33
2018-11-27T13:52:58.742Z,25.80
2018-11-27T13:55:26.787Z,28.93
2018-11-27T13:57:54.864Z,24.30
2018-11-27T14:00:22.936Z,25.47
2018-11-27T14:02:53.561Z,20.77
2018-11-27T14:05:22.748Z,23.37
2018-11-27T14:07:50.797Z,27.87
2018-11-27T14:10:18.891Z,26.10
2018-11-27T14:12:46.936Z,24.20
2018-11-27T14:15:17.106Z,55.20
2018-11-27T14:17:45.212Z,37.27
2018-11-27T14:20:13.323Z,28.33
2018-11-27T14:22:41.391Z,38.77
2018-11-27T14:25:11.028Z,23.73
2018-11-27T14:27:39.107Z,32.43
2018-11-27T14:30:10.529Z,23.40
2018-11-27T14:32:38.622Z,25.13
2018-11-27T14:35:06.701Z,32.80
2018-11-27T14:37:34.796Z,27.30
2018-11-27T14:40:02.989Z,22.80
2018-11-27T14:42:31.098Z,22.93
2018-11-27T14:44:59.163Z,35.80
2018-11-27T14:47:27.212Z,28.20
2018-11-27T14:49:55.301Z,24.17
2018-11-27T14:52:23.383Z,27.17
2018-11-27T14:54:51.493Z,21.40
2018-11-27T14:57:19.593Z,24.20
2018-11-27T14:59:47.680Z,25.27
2018-11-27T15:02:15.781Z,23.60
2018-11-27T15:04:43.961Z,25.60
2018-11-27T15:07:12.024Z,23.90
2018-11-27T15:09:40.545Z,28.10
2018-11-27T15:12:08.645Z,21.40
2018-11-27T15:14:36.767Z,22.03
2018-11-27T15:17:04.892Z,24.93
2018-11-27T15:19:32.976Z,21.93
2018-11-27T15:22:01.085Z,20.30
2018-11-27T15:24:29.165Z,31.23
2018-11-27T15:26:57.269Z,29.60
2018-11-27T15:29:25.344Z,28.27
2018-11-27T15:31:54.369Z,31.63
2018-11-27T15:34:22.423Z,24.30
2018-11-27T15:36:50.493Z,30.70
2018-11-27T15:39:18.580Z,24.30
2018-11-27T15:41:46.632Z,20.87
2018-11-27T15:44:14.731Z,24.60
2018-11-27T15:46:42.817Z,23.50
2018-11-27T15:49:10.872Z,23.10
2018-11-27T15:51:38.957Z,22.90
2018-11-27T15:54:07.046Z,20.43
2018-11-27T15:56:35.124Z,19.37
2018-11-27T15:59:03.238Z,29.17
2018-11-27T16:01:31.297Z,22.50
2018-11-27T16:03:59.378Z,28.20
2018-11-27T16:06:27.453Z,25.03
2018-11-27T16:08:55.524Z,20.97
2018-11-27T16:11:23.585Z,24.03
2018-11-27T16:13:55.413Z,24.13
2018-11-27T16:16:19.751Z,24.77
2018-11-27T16:18:47.843Z,25.73
2018-11-27T16:21:15.904Z,22.10
2018-11-27T16:23:43.996Z,20.60
2018-11-27T16:26:12.059Z,25.30
2018-11-27T16:28:40.106Z,20.90
2018-11-27T16:31:08.184Z,20.93
2018-11-27T16:33:36.253Z,26.27
2018-11-27T16:36:04.417Z,23.00
2018-11-27T16:38:32.504Z,24.90
2018-11-27T16:41:00.582Z,42.30
2018-11-27T16:43:28.665Z,28.80
2018-11-27T16:45:56.774Z,30.07
2018-11-27T16:48:24.836Z,20.47
2018-11-27T16:50:52.911Z,21.50
2018-11-27T16:53:21.031Z,26.63
2018-11-27T16:55:49.088Z,23.63
2018-11-27T16:58:17.153Z,24.30
2018-11-27T17:00:45.265Z,19.83
2018-11-27T17:03:13.360Z,23.63
2018-11-27T17:05:42.864Z,22.83
2018-11-27T17:08:10.968Z,21.20
2018-11-27T17:10:40.968Z,28.00
2018-11-27T17:13:09.893Z,22.63
2018-11-27T17:15:38.136Z,22.87
2018-11-27T17:18:06.639Z,20.93
2018-11-27T17:20:37.476Z,22.17
2018-11-27T17:23:07.387Z,25.10
2018-11-27T17:25:35.481Z,21.73
2018-11-27T17:28:20.114Z,17.90
2018-11-27T17:30:50.242Z,17.30
2018-11-27T17:33:21.512Z,19.57
2018-11-27T17:35:49.590Z,21.43
2018-11-27T17:38:17.662Z,18.53
2018-11-27T17:40:45.792Z,16.90
2018-11-27T17:43:13.860Z,23.30
2018-11-27T17:45:41.944Z,16.90
2018-11-27T17:48:10.046Z,18.47
2018-11-27T17:50:38.122Z,19.63
2018-11-27T17:53:06.489Z,18.07
2018-11-27T17:55:34.734Z,20.00
2018-11-27T17:58:03.060Z,19.33
2018-11-27T18:00:31.160Z,19.60
2018-11-27T18:03:01.076Z,23.07
2018-11-27T18:05:29.158Z,19.43
2018-11-27T18:07:57.231Z,16.60
2018-11-27T18:10:25.350Z,17.60
2018-11-27T18:12:53.413Z,19.00
2018-11-27T18:15:22.184Z,26.93
2018-11-27T18:17:50.319Z,23.00
2018-11-27T18:20:18.400Z,22.90
2018-11-27T18:22:46.538Z,21.10
2018-11-27T18:25:16.178Z,25.63
2018-11-27T18:27:45.620Z,20.87
2018-11-27T18:30:15.737Z,21.27
2018-11-27T18:32:43.808Z,21.90
2018-11-27T18:35:13.045Z,24.27
2018-11-27T18:37:41.153Z,20.23
2018-11-27T18:40:11.609Z,22.43
2018-11-27T18:42:39.707Z,28.73
2018-11-27T18:45:18.225Z,28.90
2018-11-27T18:47:46.384Z,21.47
2018-11-27T18:50:14.319Z,24.53
2018-11-27T18:52:42.714Z,25.33
2018-11-27T18:55:11.964Z,23.00
2018-11-27T18:57:40.600Z,23.93
2018-11-27T19:00:12.280Z,22.57
2018-11-27T19:02:40.336Z,24.63
2018-11-27T19:05:08.440Z,25.70
2018-11-27T19:07:36.515Z,27.40
2018-11-27T19:10:07.870Z,22.87
2018-11-27T19:12:35.923Z,25.57
2018-11-27T19:15:04.092Z,29.00
2018-11-27T19:17:32.196Z,23.40
2018-11-27T19:20:09.360Z,26.53
2018-11-27T19:22:37.444Z,21.97
2018-11-27T19:25:07.313Z,24.97
2018-11-27T19:27:35.420Z,19.70
2018-11-27T19:30:04.478Z,21.83
2018-11-27T19:32:33.240Z,21.53
2018-11-27T19:35:01.332Z,26.10
2018-11-27T19:37:29.407Z,27.93
2018-11-27T19:39:57.471Z,24.97
2018-11-27T19:42:25.568Z,27.17
2018-11-27T19:44:53.624Z,19.30
2018-11-27T19:47:21.680Z,26.23
2018-11-27T19:49:49.786Z,28.20
2018-11-27T19:52:17.880Z,35.17
2018-11-27T19:54:45.958Z,37.40
2018-11-27T19:57:14.056Z,34.53
2018-11-27T19:59:42.142Z,61.10
2018-11-27T20:02:10.239Z,52.03
2018-11-27T20:04:38.312Z,26.47
2018-11-27T20:07:06.448Z,35.67
2018-11-27T20:09:34.593Z,70.77
2018-11-27T20:12:02.681Z,62.40
2018-11-27T20:14:30.748Z,33.03
2018-11-27T20:16:58.836Z,32.90
2018-11-27T20:19:26.915Z,36.43
2018-11-27T20:21:55.003Z,47.63
2018-11-27T20:24:23.074Z,39.15
2018-11-27T20:26:51.557Z,34.88
2018-11-27T20:29:19.608Z,35.77
2018-11-27T20:31:47.692Z,36.80
2018-11-27T20:34:15.867Z,32.43
2018-11-27T20:36:43.949Z,31.37
2018-11-27T20:39:12.008Z,32.00
2018-11-27T20:41:40.161Z,30.00
2018-11-27T20:44:08.230Z,31.77
2018-11-27T20:46:36.295Z,35.15
2018-11-27T20:49:04.866Z,31.73
2018-11-27T20:51:32.959Z,30.07
2018-11-27T20:54:01.019Z,35.10
2018-11-27T20:56:29.146Z,34.90
2018-11-27T20:58:57.287Z,29.40
2018-11-27T21:01:25.387Z,32.60
2018-11-27T21:03:53.471Z,33.07
2018-11-27T21:06:21.535Z,34.67
2018-11-27T21:08:49.645Z,35.13
2018-11-27T21:11:17.809Z,35.50
2018-11-27T21:13:45.877Z,31.47
2018-11-27T21:16:13.936Z,33.23
2018-11-27T21:18:42.048Z,32.47
2018-11-27T21:21:10.116Z,31.77
2018-11-27T21:23:38.176Z,29.87
2018-11-27T21:26:06.433Z,34.70
2018-11-27T21:28:34.672Z,29.43
2018-11-27T21:31:03.941Z,33.83
2018-11-27T21:33:32.024Z,39.30
2018-11-27T21:36:00.958Z,26.33
2018-11-27T21:38:29.044Z,30.90
2018-11-27T21:40:57.147Z,28.53
2018-11-27T21:43:25.237Z,32.50
2018-11-27T21:45:53.321Z,28.90
2018-11-27T21:48:21.401Z,30.57
2018-11-27T21:50:49.508Z,27.93
2018-11-27T21:53:17.618Z,27.10
2018-11-27T21:55:45.697Z,29.63
2018-11-27T21:58:13.764Z,29.50
